createdAt,value
2019-04-01T00:07:39.047Z,58.0
2019-04-01T00:24:22.952Z,57.6
2019-04-01T00:41:06.856Z,57.6
2019-04-01T00:57:50.641Z,57.6
2019-04-01T01:14:34.395Z,57.6
2019-04-01T01:31:18.230Z,57.6
2019-04-01T01:48:01.950Z,57.6
2019-04-01T02:04:45.753Z,57.2
2019-04-01T02:21:29.765Z,57.2
2019-04-01T02:38:13.088Z,56.8
2019-04-01T02:54:56.810Z,56.8
2019-04-01T03:11:40.511Z,56.8
2019-04-01T03:28:24.233Z,56.0
2019-04-01T03:45:08.060Z,56.0
2019-04-01T04:01:51.726Z,56.0
2019-04-01T04:18:35.442Z,56.0
2019-04-01T04:35:19.155Z,56.0
2019-04-01T04:52:04.549Z,56.0
2019-04-01T05:08:46.841Z,56.0
2019-04-01T05:25:32.027Z,55.6
2019-04-01T05:42:14.656Z,55.6
2019-04-01T05:58:58.616Z,56.0
2019-04-01T06:15:42.495Z,55.6
2019-04-01T06:32:26.680Z,55.6
2019-04-01T06:49:11.609Z,55.2
2019-04-01T07:05:56.600Z,53.6
2019-04-01T07:22:41.586Z,54.8
2019-04-01T07:39:26.727Z,55.6
2019-04-01T17:20:36.594Z,62.8
2019-04-01T17:37:23.947Z,64.0
2019-04-01T17:54:22.013Z,64.8
2019-04-01T18:11:02.482Z,65.2
2019-04-01T18:27:47.303Z,65.6
2019-04-01T18:44:37.263Z,65.6
2019-04-01T19:01:22.766Z,65.6
2019-04-01T19:18:11.253Z,66.0
2019-04-01T19:34:57.889Z,66.0
2019-04-01T19:51:45.721Z,65.6
2019-04-01T20:08:32.463Z,65.6
2019-04-01T20:25:19.267Z,65.2
2019-04-01T20:42:07.315Z,66.0
2019-04-01T20:58:52.461Z,65.6
2019-04-01T21:15:38.943Z,65.6
2019-04-01T21:32:25.266Z,65.6
2019-04-01T21:49:11.685Z,65.2
2019-04-01T22:05:57.769Z,65.2
2019-04-01T22:22:43.829Z,65.2
2019-04-01T22:39:29.816Z,64.8
2019-04-01T22:56:15.665Z,64.8
2019-04-01T23:13:01.425Z,64.8
2019-04-01T23:29:47.273Z,64.0
2019-04-01T23:46:32.758Z,64.0
